createdAt,value
2019-05-14T00:00:04.139Z,75.75
2019-05-14T00:03:12.350Z,75.59
2019-05-14T00:06:18.932Z,75.17
2019-05-14T00:09:25.190Z,76.06
2019-05-14T00:12:31.768Z,75.88
2019-05-14T00:15:38.034Z,76.26
2019-05-14T00:18:44.611Z,75.37
2019-05-14T00:21:51.399Z,76.00
2019-05-14T00:24:57.955Z,76.49
2019-05-14T00:28:04.294Z,76.21
2019-05-14T00:31:12.101Z,76.89
2019-05-14T00:34:21.503Z,77.04
2019-05-14T00:37:28.049Z,77.28
2019-05-14T00:40:34.510Z,77.09
2019-05-14T00:43:41.587Z,76.92
2019-05-14T00:46:51.450Z,76.79
2019-05-14T00:49:57.280Z,77.04
2019-05-14T00:53:03.627Z,77.31
2019-05-14T00:56:11.049Z,77.45
2019-05-14T00:59:17.603Z,77.77
2019-05-14T01:02:24.148Z,78.63
2019-05-14T01:05:32.210Z,79.21
2019-05-14T01:08:38.669Z,79.04
2019-05-14T01:11:45.876Z,78.60
2019-05-14T01:15:06.946Z,78.50
2019-05-14T01:18:02.213Z,79.11
2019-05-14T01:21:11.685Z,79.05
2019-05-14T01:24:18.109Z,79.45
2019-05-14T01:27:24.537Z,79.55
2019-05-14T01:30:31.981Z,80.21
2019-05-14T01:33:40.942Z,79.92
2019-05-14T01:36:47.195Z,80.82
2019-05-14T01:39:53.747Z,81.21
2019-05-14T01:43:02.394Z,81.42
2019-05-14T01:46:08.373Z,81.53
2019-05-14T01:49:16.408Z,81.19
2019-05-14T01:52:22.837Z,81.70
2019-05-14T01:55:29.084Z,82.08
2019-05-14T01:58:35.645Z,82.46
2019-05-14T02:01:42.075Z,82.32
2019-05-14T02:04:48.516Z,82.45
2019-05-14T02:07:54.888Z,82.43
2019-05-14T02:11:01.853Z,82.73
2019-05-14T02:14:08.422Z,82.05
2019-05-14T02:17:15.119Z,80.88
2019-05-14T02:20:21.729Z,82.21
2019-05-14T02:23:28.079Z,82.29
2019-05-14T02:26:34.507Z,81.86
2019-05-14T02:29:41.860Z,82.03
2019-05-14T02:32:49.855Z,81.93
2019-05-14T02:35:59.905Z,82.00
2019-05-14T02:39:10.064Z,81.96
2019-05-14T02:42:15.262Z,82.12
2019-05-14T02:45:21.738Z,82.04
2019-05-14T02:48:29.253Z,82.35
2019-05-14T02:51:38.923Z,82.81
2019-05-14T02:54:44.016Z,82.32
2019-05-14T02:57:50.392Z,81.53
2019-05-14T03:01:00.077Z,81.71
2019-05-14T03:04:04.912Z,82.10
2019-05-14T03:07:11.600Z,82.08
2019-05-14T03:10:19.423Z,82.41
2019-05-14T03:13:29.286Z,82.78
2019-05-14T03:16:35.879Z,82.34
2019-05-14T03:19:42.555Z,82.31
2019-05-14T03:23:02.538Z,82.46
2019-05-14T03:26:00.375Z,81.29
2019-05-14T03:29:09.596Z,80.79
2019-05-14T03:32:15.134Z,80.14
2019-05-14T03:35:24.778Z,79.62
2019-05-14T03:38:30.078Z,79.26
2019-05-14T03:41:39.385Z,77.62
2019-05-14T03:44:44.617Z,76.84
2019-05-14T03:47:51.156Z,75.77
2019-05-14T03:51:00.107Z,74.28
2019-05-14T03:54:11.310Z,74.17
2019-05-14T03:57:14.780Z,73.17
2019-05-14T04:00:39.026Z,73.13
2019-05-14T04:03:45.547Z,72.68
2019-05-14T04:06:52.011Z,72.41
2019-05-14T04:09:59.592Z,70.59
2019-05-14T04:13:08.970Z,71.04
2019-05-14T04:16:15.536Z,70.62
2019-05-14T04:19:24.057Z,69.57
2019-05-14T04:22:32.855Z,69.26
2019-05-14T04:25:39.762Z,68.64
2019-05-14T04:28:50.896Z,68.92
2019-05-14T04:32:00.194Z,68.83
2019-05-14T04:35:09.581Z,69.60
2019-05-14T04:38:14.796Z,69.12
2019-05-14T04:41:21.759Z,68.97
2019-05-14T04:44:29.680Z,69.82
2019-05-14T04:47:40.967Z,69.01
2019-05-14T04:50:45.556Z,68.43
2019-05-14T04:53:51.947Z,68.16
2019-05-14T04:56:59.987Z,67.82
2019-05-14T05:00:07.109Z,67.12
2019-05-14T05:03:21.470Z,67.59
2019-05-14T05:06:29.133Z,67.49
2019-05-14T05:09:35.768Z,67.71
2019-05-14T05:12:42.107Z,67.51
2019-05-14T05:15:48.801Z,67.41
2019-05-14T05:18:55.340Z,67.48
2019-05-14T05:22:02.781Z,66.89
2019-05-14T05:25:09.832Z,66.26
2019-05-14T05:28:16.189Z,66.45
2019-05-14T05:31:22.708Z,66.96
2019-05-14T05:34:29.139Z,66.03
2019-05-14T05:37:38.292Z,65.61
2019-05-14T05:40:43.823Z,65.20
2019-05-14T05:43:50.210Z,65.57
2019-05-14T05:46:56.559Z,64.82
2019-05-14T05:50:02.839Z,64.25
2019-05-14T05:53:09.258Z,64.68
2019-05-14T05:56:18.457Z,64.00
2019-05-14T05:59:24.026Z,64.05
2019-05-14T06:02:30.386Z,64.93
2019-05-14T06:05:38.891Z,64.91
2019-05-14T06:08:44.969Z,63.65
2019-05-14T06:11:52.882Z,63.05
2019-05-14T06:14:59.311Z,63.90
2019-05-14T06:18:15.274Z,62.25
2019-05-14T06:21:14.197Z,62.25
2019-05-14T06:24:20.635Z,63.04
2019-05-14T06:27:28.781Z,62.70
2019-05-14T06:30:39.720Z,61.73
2019-05-14T06:33:48.676Z,62.40
2019-05-14T06:36:54.422Z,62.33
2019-05-14T06:40:00.822Z,60.16
2019-05-14T06:43:09.162Z,59.58
2019-05-14T06:46:15.887Z,59.21
2019-05-14T06:49:22.223Z,58.62
2019-05-14T06:52:29.235Z,59.45
2019-05-14T06:55:35.817Z,58.81
2019-05-14T06:58:42.211Z,56.17
2019-05-14T07:01:49.102Z,57.42
2019-05-14T07:04:55.486Z,56.32
2019-05-14T07:08:01.855Z,53.99
2019-05-14T07:11:08.712Z,53.27
2019-05-14T07:14:15.299Z,53.97
2019-05-14T07:17:21.747Z,54.27
2019-05-14T07:20:29.134Z,53.82
2019-05-14T07:23:38.209Z,50.87
2019-05-14T07:26:43.734Z,50.50
2019-05-14T07:29:50.756Z,50.62
2019-05-14T07:32:58.875Z,49.93
2019-05-14T07:36:05.378Z,51.56
2019-05-14T07:39:11.642Z,49.97
2019-05-14T07:42:18.423Z,49.96
2019-05-14T07:45:24.938Z,50.97
2019-05-14T07:48:31.402Z,48.53
2019-05-14T07:51:38.804Z,50.64
2019-05-14T07:54:45.255Z,46.87
2019-05-14T07:57:51.947Z,45.83
2019-05-14T08:00:58.753Z,46.42
2019-05-14T08:04:05.287Z,45.60
2019-05-14T08:07:11.702Z,45.60
2019-05-14T08:10:18.692Z,40.71
2019-05-14T08:13:28.198Z,41.82
2019-05-14T08:16:34.219Z,42.02
2019-05-14T08:19:40.691Z,42.86
2019-05-14T08:22:49.007Z,39.33
2019-05-14T08:25:55.551Z,39.13
2019-05-14T08:29:02.709Z,38.03
2019-05-14T08:32:09.375Z,39.14
2019-05-14T08:35:15.818Z,39.93
2019-05-14T08:38:22.152Z,39.93
2019-05-14T08:41:28.944Z,38.63
2019-05-14T08:44:35.530Z,38.25
2019-05-14T08:47:41.919Z,36.32
2019-05-14T08:50:48.420Z,38.47
2019-05-14T08:53:54.791Z,33.12
2019-05-14T08:57:01.111Z,31.86
2019-05-14T09:00:13.922Z,33.06
2019-05-14T09:03:19.069Z,31.74
2019-05-14T09:06:24.430Z,33.43
2019-05-14T09:09:30.936Z,32.64
2019-05-14T09:12:38.774Z,32.64
2019-05-14T09:15:48.708Z,29.80
2019-05-14T09:18:54.587Z,30.40
2019-05-14T09:22:01.199Z,32.05
2019-05-14T09:25:08.543Z,28.02
2019-05-14T09:28:14.985Z,33.33
2019-05-14T09:31:21.311Z,31.46
2019-05-14T09:34:28.974Z,32.77
2019-05-14T09:37:35.587Z,30.92
2019-05-14T09:40:42.132Z,31.21
2019-05-14T09:43:48.982Z,29.55
2019-05-14T09:46:55.424Z,28.79
2019-05-14T09:50:14.996Z,29.52
2019-05-14T09:53:10.106Z,30.60
2019-05-14T09:56:18.703Z,30.58
2019-05-14T09:59:24.505Z,31.25
2019-05-14T10:02:31.147Z,28.83
2019-05-14T10:05:37.957Z,28.38
2019-05-14T10:08:44.583Z,25.80
2019-05-14T10:11:51.060Z,28.29
2019-05-14T10:14:59.225Z,29.01
2019-05-14T10:18:11.021Z,28.57
2019-05-14T10:21:14.027Z,28.49
2019-05-14T10:24:20.788Z,29.07
2019-05-14T10:27:28.400Z,28.06
2019-05-14T10:30:34.928Z,28.86
2019-05-14T10:33:41.267Z,26.87
2019-05-14T10:36:47.881Z,27.50
2019-05-14T10:39:54.285Z,29.86
2019-05-14T10:43:04.282Z,28.04
2019-05-14T10:46:10.689Z,28.29
2019-05-14T10:49:23.480Z,27.03
2019-05-14T10:52:25.283Z,28.20
2019-05-14T10:55:31.846Z,27.78
2019-05-14T10:58:38.161Z,25.54
2019-05-14T11:01:45.724Z,25.60
2019-05-14T11:04:52.361Z,27.84
2019-05-14T11:07:58.928Z,26.29
2019-05-14T11:11:05.330Z,25.93
2019-05-14T11:14:12.052Z,25.02
2019-05-14T11:17:19.728Z,25.98
2019-05-14T11:20:30.820Z,24.28
2019-05-14T11:23:34.504Z,25.40
2019-05-14T11:26:40.931Z,27.13
2019-05-14T11:29:49.181Z,26.58
2019-05-14T11:32:55.530Z,26.20
2019-05-14T11:36:01.985Z,23.93
2019-05-14T11:39:09.747Z,23.93
2019-05-14T11:42:16.188Z,23.91
2019-05-14T11:45:22.825Z,21.42
2019-05-14T11:48:29.277Z,23.73
2019-05-14T11:51:58.968Z,22.61
2019-05-14T11:54:44.047Z,22.84
2019-05-14T11:57:50.627Z,22.64
2019-05-14T12:00:58.427Z,24.22
2019-05-14T12:04:05.180Z,22.83
2019-05-14T12:07:11.939Z,24.48
2019-05-14T12:10:19.018Z,24.39
2019-05-14T12:13:29.889Z,23.57
2019-05-14T12:16:34.023Z,23.41
2019-05-14T12:19:43.580Z,24.98
2019-05-14T12:22:48.993Z,24.02
2019-05-14T12:25:55.434Z,22.89
2019-05-14T12:29:02.925Z,22.12
2019-05-14T12:32:12.875Z,22.39
2019-05-14T12:35:19.771Z,21.98
2019-05-14T12:38:25.734Z,22.02
2019-05-14T12:41:33.388Z,23.35
2019-05-14T12:44:40.843Z,21.24
2019-05-14T12:47:50.041Z,21.86
2019-05-14T12:50:55.713Z,22.96
2019-05-14T12:54:02.928Z,24.47
2019-05-14T12:57:09.296Z,24.00
2019-05-14T13:00:15.939Z,22.87
2019-05-14T13:03:22.278Z,23.07
2019-05-14T13:06:29.434Z,24.53
2019-05-14T13:09:38.342Z,25.03
2019-05-14T13:12:44.326Z,23.62
2019-05-14T13:15:50.751Z,23.57
2019-05-14T13:18:59.734Z,23.81
2019-05-14T13:22:13.533Z,25.37
2019-05-14T13:25:13.598Z,22.96
2019-05-14T13:28:20.196Z,22.71
2019-05-14T13:31:29.004Z,25.30
2019-05-14T13:34:34.739Z,25.55
2019-05-14T13:37:41.159Z,25.37
2019-05-14T13:40:49.180Z,24.02
2019-05-14T13:43:58.698Z,25.35
2019-05-14T13:47:04.589Z,24.31
2019-05-14T13:50:11.887Z,24.84
2019-05-14T13:53:18.938Z,24.89
2019-05-14T13:56:25.685Z,23.03
2019-05-14T13:59:32.052Z,23.40
2019-05-14T14:02:38.613Z,21.90
2019-05-14T14:05:45.078Z,21.74
2019-05-14T14:08:51.555Z,24.00
2019-05-14T14:11:58.741Z,22.66
2019-05-14T14:15:09.201Z,22.20
2019-05-14T14:18:14.431Z,22.05
2019-05-14T14:21:21.012Z,24.64
2019-05-14T14:24:29.059Z,22.73
2019-05-14T14:27:39.970Z,25.29
2019-05-14T14:30:44.332Z,26.63
2019-05-14T14:33:50.779Z,27.29
2019-05-14T14:36:59.272Z,27.62
2019-05-14T14:40:09.321Z,28.42
2019-05-14T14:43:14.501Z,27.90
2019-05-14T14:46:21.219Z,28.89
2019-05-14T14:49:28.130Z,30.43
2019-05-14T14:52:34.983Z,29.02
2019-05-14T14:55:41.344Z,29.93
2019-05-14T14:58:49.303Z,31.14
2019-05-14T15:01:59.389Z,31.50
2019-05-14T15:05:09.801Z,31.15
2019-05-14T15:08:12.975Z,31.94
2019-05-14T15:11:19.322Z,31.40
2019-05-14T15:14:29.507Z,32.18
2019-05-14T15:17:34.234Z,31.92
2019-05-14T15:20:40.571Z,31.27
2019-05-14T15:24:02.993Z,31.52
2019-05-14T15:26:55.195Z,31.91
2019-05-14T15:30:01.901Z,32.44
2019-05-14T15:33:09.431Z,32.37
2019-05-14T15:36:15.961Z,33.21
2019-05-14T15:39:22.650Z,33.46
2019-05-14T15:42:29.434Z,32.74
2019-05-14T15:45:37.876Z,33.27
2019-05-14T15:48:44.307Z,34.00
2019-05-14T15:51:50.722Z,34.53
2019-05-14T15:54:57.268Z,35.30
2019-05-14T15:58:03.725Z,36.13
2019-05-14T16:01:11.247Z,36.58
2019-05-14T16:04:20.647Z,37.05
2019-05-14T16:07:29.151Z,37.19
2019-05-14T16:10:34.426Z,37.53
2019-05-14T16:13:41.016Z,37.61
2019-05-14T16:16:48.707Z,38.07
2019-05-14T16:19:55.377Z,38.46
2019-05-14T16:23:04.152Z,37.85
2019-05-14T16:26:10.559Z,38.47
2019-05-14T16:29:19.227Z,38.40
2019-05-14T16:32:25.066Z,38.99
2019-05-14T16:35:31.516Z,38.76
2019-05-14T16:38:39.544Z,38.97
2019-05-14T16:41:48.861Z,39.60
2019-05-14T16:44:54.709Z,39.54
2019-05-14T16:48:01.048Z,39.63
2019-05-14T16:51:08.965Z,39.59
2019-05-14T16:54:18.092Z,40.04
2019-05-14T16:57:23.748Z,39.21
2019-05-14T17:00:30.136Z,40.37
2019-05-14T17:03:39.287Z,41.09
2019-05-14T17:06:44.794Z,41.96
2019-05-14T17:09:51.256Z,41.91
2019-05-14T17:13:01.584Z,41.19
2019-05-14T17:16:05.504Z,40.70
2019-05-14T17:19:12.080Z,40.14
2019-05-14T17:22:28.511Z,40.17
2019-05-14T17:25:30.403Z,39.88
2019-05-14T17:28:37.620Z,38.63
2019-05-14T17:31:43.673Z,38.47
2019-05-14T17:34:51.530Z,38.94
2019-05-14T17:37:58.811Z,39.54
2019-05-14T17:41:05.277Z,39.32
2019-05-14T17:44:11.682Z,39.70
2019-05-14T17:47:18.524Z,39.74
2019-05-14T17:50:25.081Z,39.75
2019-05-14T17:53:31.673Z,39.96
2019-05-14T17:56:39.042Z,39.97
2019-05-14T17:59:45.734Z,40.13
2019-05-14T18:02:52.149Z,40.61
2019-05-14T18:06:01.016Z,40.67
2019-05-14T18:09:09.089Z,41.13
2019-05-14T18:12:18.511Z,41.13
2019-05-14T18:15:23.965Z,41.73
2019-05-14T18:18:31.691Z,40.71
2019-05-14T18:21:39.008Z,40.25
2019-05-14T18:24:45.622Z,40.25
2019-05-14T18:27:52.296Z,40.75
2019-05-14T18:30:58.958Z,41.02
2019-05-14T18:34:05.788Z,41.81
2019-05-14T18:37:18.176Z,41.71
2019-05-14T18:40:28.110Z,42.27
2019-05-14T18:43:34.744Z,42.43
2019-05-14T18:46:41.192Z,42.68
2019-05-14T18:49:49.315Z,43.41
2019-05-14T18:52:55.750Z,44.42
2019-05-14T18:56:16.608Z,44.57
2019-05-14T18:59:10.611Z,45.27
2019-05-14T19:02:18.446Z,46.07
2019-05-14T19:05:24.968Z,46.33
2019-05-14T19:08:31.318Z,46.13
2019-05-14T19:11:38.713Z,46.94
2019-05-14T19:14:45.352Z,47.42
2019-05-14T19:17:51.759Z,47.82
2019-05-14T19:20:59.228Z,48.40
2019-05-14T19:24:08.987Z,48.97
2019-05-14T19:27:15.143Z,48.97
2019-05-14T19:30:21.552Z,49.12
2019-05-14T19:33:30.850Z,49.68
2019-05-14T19:36:39.754Z,50.13
2019-05-14T19:39:47.923Z,50.41
2019-05-14T19:42:53.839Z,50.08
2019-05-14T19:46:00.225Z,50.92
2019-05-14T19:49:08.151Z,51.41
2019-05-14T19:52:14.906Z,51.61
2019-05-14T19:55:21.224Z,52.38
2019-05-14T19:58:29.490Z,52.45
2019-05-14T20:01:38.389Z,53.08
2019-05-14T20:04:45.027Z,53.15
2019-05-14T20:07:51.809Z,52.87
2019-05-14T20:11:00.967Z,53.21
2019-05-14T20:14:07.516Z,53.59
2019-05-14T20:17:15.603Z,53.97
2019-05-14T20:20:25.688Z,53.55
2019-05-14T20:23:38.701Z,54.02
2019-05-14T20:26:48.618Z,53.96
2019-05-14T20:29:58.097Z,54.63
2019-05-14T20:33:08.542Z,54.45
2019-05-14T20:36:15.078Z,54.06
2019-05-14T20:39:22.655Z,54.39
2019-05-14T20:42:29.147Z,54.67
2019-05-14T20:45:35.534Z,54.10
2019-05-14T20:48:41.945Z,54.38
2019-05-14T20:51:49.467Z,54.41
2019-05-14T20:54:57.907Z,54.11
2019-05-14T20:58:05.316Z,54.80
2019-05-14T21:01:12.043Z,54.52
2019-05-14T21:04:19.028Z,55.64
2019-05-14T21:07:28.897Z,55.64
2019-05-14T21:10:34.913Z,56.16
2019-05-14T21:13:41.442Z,56.67
2019-05-14T21:16:48.853Z,56.95
2019-05-14T21:19:55.979Z,56.45
2019-05-14T21:23:02.302Z,56.91
2019-05-14T21:26:08.782Z,57.10
2019-05-14T21:29:16.899Z,57.48
2019-05-14T21:32:23.459Z,57.56
2019-05-14T21:35:29.801Z,57.87
2019-05-14T21:38:37.949Z,57.91
2019-05-14T21:41:44.340Z,57.88
2019-05-14T21:44:51.527Z,58.03
2019-05-14T21:47:59.462Z,58.29
2019-05-14T21:51:08.518Z,58.44
2019-05-14T21:54:14.082Z,58.25
2019-05-14T21:57:20.492Z,58.20
2019-05-14T22:00:34.768Z,57.76
2019-05-14T22:03:43.309Z,57.77
2019-05-14T22:06:49.654Z,58.64
2019-05-14T22:09:58.242Z,58.91
2019-05-14T22:13:04.090Z,58.69
2019-05-14T22:16:10.373Z,58.85
2019-05-14T22:19:18.884Z,58.65
2019-05-14T22:22:25.030Z,59.08
2019-05-14T22:25:31.423Z,58.96
2019-05-14T22:28:37.776Z,58.59
2019-05-14T22:31:44.397Z,58.17
2019-05-14T22:34:50.975Z,58.28
2019-05-14T22:37:59.504Z,59.10
2019-05-14T22:41:08.688Z,59.03
2019-05-14T22:44:14.826Z,58.28
2019-05-14T22:47:21.302Z,58.81
2019-05-14T22:50:29.387Z,59.15
2019-05-14T22:53:35.694Z,59.54
2019-05-14T22:56:42.153Z,59.75
2019-05-14T22:59:48.745Z,58.96
2019-05-14T23:02:56.019Z,58.64
2019-05-14T23:06:02.664Z,59.23
2019-05-14T23:09:09.194Z,58.96
2019-05-14T23:12:15.761Z,59.40
2019-05-14T23:15:22.012Z,59.22
2019-05-14T23:18:28.811Z,59.29
2019-05-14T23:21:35.203Z,59.69
2019-05-14T23:24:41.553Z,60.35
2019-05-14T23:27:48.364Z,60.35
2019-05-14T23:30:55.059Z,59.58
2019-05-14T23:34:01.493Z,59.57
2019-05-14T23:37:08.983Z,60.28
2019-05-14T23:40:15.307Z,60.10
2019-05-14T23:43:21.799Z,59.92
2019-05-14T23:46:29.148Z,60.99
2019-05-14T23:49:35.814Z,60.54
2019-05-14T23:52:42.165Z,60.00
2019-05-14T23:55:48.490Z,59.92
2019-05-14T23:59:01.102Z,60.02
